sensor_id;sensor_type;location;lat;lon;timestamp;temperature;humidity
2477;DHT22;1249;51.270;6.756;2022-08-01T06:14:10;22.10;99.90
2477;DHT22;1249;51.270;6.756;2022-08-01T06:16:37;22.10;99.90
2477;DHT22;1249;51.270;6.756;2022-08-01T06:19:04;22.40;99.90
2477;DHT22;1249;51.270;6.756;2022-08-01T06:21:31;22.70;99.90
2477;DHT22;1249;51.270;6.756;2022-08-01T06:23:57;22.90;99.90
2477;DHT22;1249;51.270;6.756;2022-08-01T06:26:24;23.20;99.90
2477;DHT22;1249;51.270;6.756;2022-08-01T06:28:51;23.40;99.90
2477;DHT22;1249;51.270;6.756;2022-08-01T06:31:20;23.60;99.90
2477;DHT22;1249;51.270;6.756;2022-08-01T06:33:46;23.70;99.90
2477;DHT22;1249;51.270;6.756;2022-08-01T06:36:13;23.90;99.90
2477;DHT22;1249;51.270;6.756;2022-08-01T06:38:40;24.00;99.90
2477;DHT22;1249;51.270;6.756;2022-08-01T06:41:07;24.10;99.90
2477;DHT22;1249;51.270;6.756;2022-08-01T06:43:34;24.20;99.90
2477;DHT22;1249;51.270;6.756;2022-08-01T06:46:01;24.30;99.90
2477;DHT22;1249;51.270;6.756;2022-08-01T06:48:29;24.30;99.90
2477;DHT22;1249;51.270;6.756;2022-08-01T06:50:56;24.40;99.90
2477;DHT22;1249;51.270;6.756;2022-08-01T06:53:35;24.40;99.90
2477;DHT22;1249;51.270;6.756;2022-08-01T06:56:03;24.50;99.90
2477;DHT22;1249;51.270;6.756;2022-08-01T06:58:30;24.60;99.90
2477;DHT22;1249;51.270;6.756;2022-08-01T07:00:57;24.70;99.90
2477;DHT22;1249;51.270;6.756;2022-08-01T07:03:24;24.80;99.90
2477;DHT22;1249;51.270;6.756;2022-08-01T07:05:52;24.90;99.90
2477;DHT22;1249;51.270;6.756;2022-08-01T07:08:19;25.10;99.90
2477;DHT22;1249;51.270;6.756;2022-08-01T07:10:47;25.40;99.90
2477;DHT22;1249;51.270;6.756;2022-08-01T07:13:13;25.60;99.90
2477;DHT22;1249;51.270;6.756;2022-08-01T07:15:45;25.80;99.90
2477;DHT22;1249;51.270;6.756;2022-08-01T07:18:12;26.10;99.90
2477;DHT22;1249;51.270;6.756;2022-08-01T07:20:39;26.30;99.90
2477;DHT22;1249;51.270;6.756;2022-08-01T07:23:07;26.40;99.90
2477;DHT22;1249;51.270;6.756;2022-08-01T07:25:34;26.50;99.90
2477;DHT22;1249;51.270;6.756;2022-08-01T07:28:01;26.50;99.90
2477;DHT22;1249;51.270;6.756;2022-08-01T07:30:28;26.50;99.90
2477;DHT22;1249;51.270;6.756;2022-08-01T07:32:55;26.50;99.90
2477;DHT22;1249;51.270;6.756;2022-08-01T07:35:21;26.40;99.90
2477;DHT22;1249;51.270;6.756;2022-08-01T07:37:48;26.40;99.90
2477;DHT22;1249;51.270;6.756;2022-08-01T07:40:17;26.50;99.90
2477;DHT22;1249;51.270;6.756;2022-08-01T07:42:45;26.50;99.90
2477;DHT22;1249;51.270;6.756;2022-08-01T07:45:12;26.60;99.90
2477;DHT22;1249;51.270;6.756;2022-08-01T07:47:39;26.70;99.90
2477;DHT22;1249;51.270;6.756;2022-08-01T07:50:07;26.70;99.90
2477;DHT22;1249;51.270;6.756;2022-08-01T07:52:34;26.80;99.90
2477;DHT22;1249;51.270;6.756;2022-08-01T07:55:01;26.90;99.90
2477;DHT22;1249;51.270;6.756;2022-08-01T07:57:29;27.10;99.90
2477;DHT22;1249;51.270;6.756;2022-08-01T07:59:56;27.20;99.90
2477;DHT22;1249;51.270;6.756;2022-08-01T08:02:23;27.20;99.30
2477;DHT22;1249;51.270;6.756;2022-08-01T08:04:49;27.30;99.20
2477;DHT22;1249;51.270;6.756;2022-08-01T08:07:16;27.20;98.70
2477;DHT22;1249;51.270;6.756;2022-08-01T08:09:43;27.30;99.40
2477;DHT22;1249;51.270;6.756;2022-08-01T08:12:10;27.50;98.90
2477;DHT22;1249;51.270;6.756;2022-08-01T08:14:39;27.60;97.30
2477;DHT22;1249;51.270;6.756;2022-08-01T08:17:06;27.80;96.30
2477;DHT22;1249;51.270;6.756;2022-08-01T08:19:33;28.10;95.20
2477;DHT22;1249;51.270;6.756;2022-08-01T08:22:02;28.40;94.30
2477;DHT22;1249;51.270;6.756;2022-08-01T08:24:29;28.60;93.70
2477;DHT22;1249;51.270;6.756;2022-08-01T08:26:58;28.80;91.80
2477;DHT22;1249;51.270;6.756;2022-08-01T08:29:26;28.70;91.70
2477;DHT22;1249;51.270;6.756;2022-08-01T08:31:57;28.70;91.20
2477;DHT22;1249;51.270;6.756;2022-08-01T08:34:24;28.70;91.00
2477;DHT22;1249;51.270;6.756;2022-08-01T08:36:51;28.70;90.80
2477;DHT22;1249;51.270;6.756;2022-08-01T08:39:18;28.80;90.50
2477;DHT22;1249;51.270;6.756;2022-08-01T08:41:46;28.90;88.80
2477;DHT22;1249;51.270;6.756;2022-08-01T08:44:12;28.80;87.30
2477;DHT22;1249;51.270;6.756;2022-08-01T08:46:42;28.70;87.20
2477;DHT22;1249;51.270;6.756;2022-08-01T08:49:12;28.50;87.70
2477;DHT22;1249;51.270;6.756;2022-08-01T08:51:39;28.40;88.40
2477;DHT22;1249;51.270;6.756;2022-08-01T08:54:11;28.20;89.20
2477;DHT22;1249;51.270;6.756;2022-08-01T08:56:39;28.30;90.00
2477;DHT22;1249;51.270;6.756;2022-08-01T08:59:06;28.40;90.60
2477;DHT22;1249;51.270;6.756;2022-08-01T09:01:33;28.60;90.40
2477;DHT22;1249;51.270;6.756;2022-08-01T09:04:01;28.80;90.10
2477;DHT22;1249;51.270;6.756;2022-08-01T09:06:30;28.90;89.00
2477;DHT22;1249;51.270;6.756;2022-08-01T09:08:57;28.80;88.70
2477;DHT22;1249;51.270;6.756;2022-08-01T09:11:25;28.80;89.10
2477;DHT22;1249;51.270;6.756;2022-08-01T09:14:03;28.70;88.50
2477;DHT22;1249;51.270;6.756;2022-08-01T09:16:30;28.70;89.40
2477;DHT22;1249;51.270;6.756;2022-08-01T09:19:07;28.80;90.10
2477;DHT22;1249;51.270;6.756;2022-08-01T09:21:36;28.90;89.40
2477;DHT22;1249;51.270;6.756;2022-08-01T09:24:04;29.00;89.00
2477;DHT22;1249;51.270;6.756;2022-08-01T09:26:33;29.10;89.90
2477;DHT22;1249;51.270;6.756;2022-08-01T09:29:03;29.40;89.10
2477;DHT22;1249;51.270;6.756;2022-08-01T09:31:39;29.70;86.90
2477;DHT22;1249;51.270;6.756;2022-08-01T09:34:06;29.80;83.60
2477;DHT22;1249;51.270;6.756;2022-08-01T09:36:48;29.80;82.20
2477;DHT22;1249;51.270;6.756;2022-08-01T09:39:19;29.80;81.20
2477;DHT22;1249;51.270;6.756;2022-08-01T09:41:46;29.70;81.00
2477;DHT22;1249;51.270;6.756;2022-08-01T09:44:14;29.70;81.60
2477;DHT22;1249;51.270;6.756;2022-08-01T09:46:50;29.70;80.70
2477;DHT22;1249;51.270;6.756;2022-08-01T09:49:32;29.80;81.00
2477;DHT22;1249;51.270;6.756;2022-08-01T09:52:11;30.00;80.60
2477;DHT22;1249;51.270;6.756;2022-08-01T09:54:39;30.40;80.50
2477;DHT22;1249;51.270;6.756;2022-08-01T09:57:09;30.70;78.80
2477;DHT22;1249;51.270;6.756;2022-08-01T09:59:36;31.00;77.90
2477;DHT22;1249;51.270;6.756;2022-08-01T10:02:06;31.30;76.90
2477;DHT22;1249;51.270;6.756;2022-08-01T10:04:34;31.70;75.70
2477;DHT22;1249;51.270;6.756;2022-08-01T10:07:07;32.00;74.50
2477;DHT22;1249;51.270;6.756;2022-08-01T10:09:35;32.40;72.50
2477;DHT22;1249;51.270;6.756;2022-08-01T10:12:02;32.40;70.70
2477;DHT22;1249;51.270;6.756;2022-08-01T10:14:30;32.70;70.40
2477;DHT22;1249;51.270;6.756;2022-08-01T10:16:59;33.00;68.60
2477;DHT22;1249;51.270;6.756;2022-08-01T10:19:29;33.30;67.10
2477;DHT22;1249;51.270;6.756;2022-08-01T10:21:56;33.70;66.80
2477;DHT22;1249;51.270;6.756;2022-08-01T10:24:27;33.80;66.60
2477;DHT22;1249;51.270;6.756;2022-08-01T10:26:57;33.70;65.40
2477;DHT22;1249;51.270;6.756;2022-08-01T10:29:34;33.40;65.50
2477;DHT22;1249;51.270;6.756;2022-08-01T10:32:03;33.40;66.20
2477;DHT22;1249;51.270;6.756;2022-08-01T10:34:31;33.60;64.90
2477;DHT22;1249;51.270;6.756;2022-08-01T10:37:00;33.90;64.30
2477;DHT22;1249;51.270;6.756;2022-08-01T10:39:30;34.10;63.30
2477;DHT22;1249;51.270;6.756;2022-08-01T10:41:58;34.30;63.20
2477;DHT22;1249;51.270;6.756;2022-08-01T10:44:26;34.60;60.60
2477;DHT22;1249;51.270;6.756;2022-08-01T10:46:57;34.80;59.10
2477;DHT22;1249;51.270;6.756;2022-08-01T10:49:29;34.90;58.10
2477;DHT22;1249;51.270;6.756;2022-08-01T10:51:57;35.00;58.10
2477;DHT22;1249;51.270;6.756;2022-08-01T10:54:25;34.90;58.00
2477;DHT22;1249;51.270;6.756;2022-08-01T10:56:54;34.70;58.20
2477;DHT22;1249;51.270;6.756;2022-08-01T10:59:27;34.70;58.20
2477;DHT22;1249;51.270;6.756;2022-08-01T11:01:57;34.90;57.20
2477;DHT22;1249;51.270;6.756;2022-08-01T11:04:33;34.90;56.80
2477;DHT22;1249;51.270;6.756;2022-08-01T11:07:05;35.00;56.90
2477;DHT22;1249;51.270;6.756;2022-08-01T11:09:39;35.10;57.30
2477;DHT22;1249;51.270;6.756;2022-08-01T11:12:10;35.20;57.50
2477;DHT22;1249;51.270;6.756;2022-08-01T11:17:43;35.60;56.10
2477;DHT22;1249;51.270;6.756;2022-08-01T11:20:15;35.80;56.30
2477;DHT22;1249;51.270;6.756;2022-08-01T11:23:15;36.00;55.50
2477;DHT22;1249;51.270;6.756;2022-08-01T11:26:08;36.10;55.40
2477;DHT22;1249;51.270;6.756;2022-08-01T11:28:37;36.30;55.70
2477;DHT22;1249;51.270;6.756;2022-08-01T11:31:30;36.40;55.40
2477;DHT22;1249;51.270;6.756;2022-08-01T11:33:57;36.50;55.40
2477;DHT22;1249;51.270;6.756;2022-08-01T11:36:24;36.60;54.70
2477;DHT22;1249;51.270;6.756;2022-08-01T11:39:11;36.40;53.50
2477;DHT22;1249;51.270;6.756;2022-08-01T11:41:39;36.00;52.70
2477;DHT22;1249;51.270;6.756;2022-08-01T11:44:08;35.80;52.50
2477;DHT22;1249;51.270;6.756;2022-08-01T11:46:55;35.80;52.70
2477;DHT22;1249;51.270;6.756;2022-08-01T11:49:43;35.90;52.40
2477;DHT22;1249;51.270;6.756;2022-08-01T11:52:13;35.90;52.30
2477;DHT22;1249;51.270;6.756;2022-08-01T11:54:42;35.90;52.80
2477;DHT22;1249;51.270;6.756;2022-08-01T11:57:12;35.70;53.20
2477;DHT22;1249;51.270;6.756;2022-08-01T11:59:43;35.60;54.70
2477;DHT22;1249;51.270;6.756;2022-08-01T12:02:19;35.70;55.40
2477;DHT22;1249;51.270;6.756;2022-08-01T12:04:51;35.80;56.00
2477;DHT22;1249;51.270;6.756;2022-08-01T12:07:19;35.90;55.60
2477;DHT22;1249;51.270;6.756;2022-08-01T12:09:46;36.10;55.30
2477;DHT22;1249;51.270;6.756;2022-08-01T12:12:15;36.20;55.00
2477;DHT22;1249;51.270;6.756;2022-08-01T12:14:53;36.40;55.00
2477;DHT22;1249;51.270;6.756;2022-08-01T12:17:28;36.40;54.80
2477;DHT22;1249;51.270;6.756;2022-08-01T12:19:55;36.30;54.20
2477;DHT22;1249;51.270;6.756;2022-08-01T12:22:23;36.10;54.10
2477;DHT22;1249;51.270;6.756;2022-08-01T12:24:51;36.10;55.10
2477;DHT22;1249;51.270;6.756;2022-08-01T12:27:25;36.10;54.50
2477;DHT22;1249;51.270;6.756;2022-08-01T12:29:54;36.20;54.50
2477;DHT22;1249;51.270;6.756;2022-08-01T12:32:23;36.20;54.30
2477;DHT22;1249;51.270;6.756;2022-08-01T12:34:51;36.10;54.20
2477;DHT22;1249;51.270;6.756;2022-08-01T12:37:18;36.10;54.10
2477;DHT22;1249;51.270;6.756;2022-08-01T12:39:46;36.10;54.00
2477;DHT22;1249;51.270;6.756;2022-08-01T12:42:13;36.20;53.90
2477;DHT22;1249;51.270;6.756;2022-08-01T12:44:43;36.30;53.90
2477;DHT22;1249;51.270;6.756;2022-08-01T12:47:12;36.50;54.30
2477;DHT22;1249;51.270;6.756;2022-08-01T12:49:41;36.60;54.20
2477;DHT22;1249;51.270;6.756;2022-08-01T12:52:09;36.70;54.00
2477;DHT22;1249;51.270;6.756;2022-08-01T12:55:06;36.80;53.70
2477;DHT22;1249;51.270;6.756;2022-08-01T12:57:34;36.80;53.50
2477;DHT22;1249;51.270;6.756;2022-08-01T13:03:02;36.70;53.00
2477;DHT22;1249;51.270;6.756;2022-08-01T13:05:41;36.70;53.00
2477;DHT22;1249;51.270;6.756;2022-08-01T13:08:10;36.80;52.70
2477;DHT22;1249;51.270;6.756;2022-08-01T13:10:37;36.90;52.40
2477;DHT22;1249;51.270;6.756;2022-08-01T13:13:04;37.00;52.10
2477;DHT22;1249;51.270;6.756;2022-08-01T13:15:33;37.10;51.60
2477;DHT22;1249;51.270;6.756;2022-08-01T13:18:22;37.20;51.20
2477;DHT22;1249;51.270;6.756;2022-08-01T13:20:49;37.30;51.20
2477;DHT22;1249;51.270;6.756;2022-08-01T13:23:17;37.20;51.20
2477;DHT22;1249;51.270;6.756;2022-08-01T13:25:49;37.20;51.10
2477;DHT22;1249;51.270;6.756;2022-08-01T13:28:21;37.00;50.80
2477;DHT22;1249;51.270;6.756;2022-08-01T13:30:55;36.80;50.60
2477;DHT22;1249;51.270;6.756;2022-08-01T13:33:25;36.60;50.90
2477;DHT22;1249;51.270;6.756;2022-08-01T13:35:53;36.20;51.10
2477;DHT22;1249;51.270;6.756;2022-08-01T13:38:21;36.00;51.70
2477;DHT22;1249;51.270;6.756;2022-08-01T13:41:09;35.80;52.30
2477;DHT22;1249;51.270;6.756;2022-08-01T13:43:36;35.60;52.90
2477;DHT22;1249;51.270;6.756;2022-08-01T13:46:03;35.40;53.20
2477;DHT22;1249;51.270;6.756;2022-08-01T13:48:32;35.30;53.40
2477;DHT22;1249;51.270;6.756;2022-08-01T13:51:00;35.20;53.80
2477;DHT22;1249;51.270;6.756;2022-08-01T13:53:27;35.00;54.00
2477;DHT22;1249;51.270;6.756;2022-08-01T13:55:55;34.80;54.30
2477;DHT22;1249;51.270;6.756;2022-08-01T13:58:21;34.70;54.60
2477;DHT22;1249;51.270;6.756;2022-08-01T14:00:48;34.60;54.90
2477;DHT22;1249;51.270;6.756;2022-08-01T14:03:15;34.50;55.10
2477;DHT22;1249;51.270;6.756;2022-08-01T14:05:44;34.50;55.00
2477;DHT22;1249;51.270;6.756;2022-08-01T14:08:11;34.50;55.00
2477;DHT22;1249;51.270;6.756;2022-08-01T14:10:38;34.50;54.90
2477;DHT22;1249;51.270;6.756;2022-08-01T14:13:05;34.50;54.70
2477;DHT22;1249;51.270;6.756;2022-08-01T14:15:33;34.50;54.50
2477;DHT22;1249;51.270;6.756;2022-08-01T14:18:00;34.50;54.60
2477;DHT22;1249;51.270;6.756;2022-08-01T14:20:26;34.50;54.70
2477;DHT22;1249;51.270;6.756;2022-08-01T14:22:54;34.40;54.80
2477;DHT22;1249;51.270;6.756;2022-08-01T14:25:21;34.40;55.20
2477;DHT22;1249;51.270;6.756;2022-08-01T14:27:48;34.30;55.00
2477;DHT22;1249;51.270;6.756;2022-08-01T14:30:15;34.30;55.20
2477;DHT22;1249;51.270;6.756;2022-08-01T14:32:42;34.20;55.30
2477;DHT22;1249;51.270;6.756;2022-08-01T14:35:09;34.10;55.50
2477;DHT22;1249;51.270;6.756;2022-08-01T14:37:35;34.00;55.60
2477;DHT22;1249;51.270;6.756;2022-08-01T14:40:05;34.00;55.80
2477;DHT22;1249;51.270;6.756;2022-08-01T14:42:34;33.90;56.10
2477;DHT22;1249;51.270;6.756;2022-08-01T14:45:02;33.80;56.50
2477;DHT22;1249;51.270;6.756;2022-08-01T14:47:29;33.80;56.80
2477;DHT22;1249;51.270;6.756;2022-08-01T14:49:56;33.70;57.00
2477;DHT22;1249;51.270;6.756;2022-08-01T14:52:22;33.80;57.30
2477;DHT22;1249;51.270;6.756;2022-08-01T14:54:49;33.80;57.30
2477;DHT22;1249;51.270;6.756;2022-08-01T14:57:17;33.90;57.30
2477;DHT22;1249;51.270;6.756;2022-08-01T14:59:44;33.90;57.10
2477;DHT22;1249;51.270;6.756;2022-08-01T15:02:11;34.00;57.10
2477;DHT22;1249;51.270;6.756;2022-08-01T15:04:42;34.10;56.80
2477;DHT22;1249;51.270;6.756;2022-08-01T15:07:09;34.10;56.50
2477;DHT22;1249;51.270;6.756;2022-08-01T15:09:36;34.10;56.20
2477;DHT22;1249;51.270;6.756;2022-08-01T15:12:04;34.20;56.10
2477;DHT22;1249;51.270;6.756;2022-08-01T15:14:32;34.20;55.70
2477;DHT22;1249;51.270;6.756;2022-08-01T15:17:17;34.20;55.50
2477;DHT22;1249;51.270;6.756;2022-08-01T15:19:45;34.10;55.60
2477;DHT22;1249;51.270;6.756;2022-08-01T15:22:12;34.10;55.70
2477;DHT22;1249;51.270;6.756;2022-08-01T15:24:39;34.10;56.00
2477;DHT22;1249;51.270;6.756;2022-08-01T15:27:06;33.90;55.90
2477;DHT22;1249;51.270;6.756;2022-08-01T15:29:34;33.90;56.00
2477;DHT22;1249;51.270;6.756;2022-08-01T15:32:02;33.70;56.20
2477;DHT22;1249;51.270;6.756;2022-08-01T15:34:29;33.50;56.20
2477;DHT22;1249;51.270;6.756;2022-08-01T15:36:57;33.30;56.30
2477;DHT22;1249;51.270;6.756;2022-08-01T15:39:24;33.10;56.40
2477;DHT22;1249;51.270;6.756;2022-08-01T15:41:51;33.00;56.60
2477;DHT22;1249;51.270;6.756;2022-08-01T15:44:18;32.80;56.70
2477;DHT22;1249;51.270;6.756;2022-08-01T15:46:46;32.70;56.50
2477;DHT22;1249;51.270;6.756;2022-08-01T15:49:14;32.70;56.90
2477;DHT22;1249;51.270;6.756;2022-08-01T15:51:41;32.50;57.10
2477;DHT22;1249;51.270;6.756;2022-08-01T15:54:08;32.50;57.30
2477;DHT22;1249;51.270;6.756;2022-08-01T15:56:35;32.50;57.40
2477;DHT22;1249;51.270;6.756;2022-08-01T15:59:03;32.50;57.50
2477;DHT22;1249;51.270;6.756;2022-08-01T16:01:30;32.50;57.80
2477;DHT22;1249;51.270;6.756;2022-08-01T16:03:59;32.40;58.40
2477;DHT22;1249;51.270;6.756;2022-08-01T16:06:26;32.30;57.70
2477;DHT22;1249;51.270;6.756;2022-08-01T16:08:53;32.20;57.80
2477;DHT22;1249;51.270;6.756;2022-08-01T16:11:20;32.10;57.50
2477;DHT22;1249;51.270;6.756;2022-08-01T16:13:48;32.00;57.40
2477;DHT22;1249;51.270;6.756;2022-08-01T16:16:15;31.90;57.20
2477;DHT22;1249;51.270;6.756;2022-08-01T16:18:43;31.80;57.40
2477;DHT22;1249;51.270;6.756;2022-08-01T16:21:11;31.70;57.50
2477;DHT22;1249;51.270;6.756;2022-08-01T16:23:38;31.70;58.10
2477;DHT22;1249;51.270;6.756;2022-08-01T16:26:05;31.60;58.60
2477;DHT22;1249;51.270;6.756;2022-08-01T16:28:32;31.60;58.90
2477;DHT22;1249;51.270;6.756;2022-08-01T16:30:59;31.50;58.90
2477;DHT22;1249;51.270;6.756;2022-08-01T16:33:25;31.50;59.10
2477;DHT22;1249;51.270;6.756;2022-08-01T16:35:52;31.50;59.40
2477;DHT22;1249;51.270;6.756;2022-08-01T16:38:21;31.50;59.50
2477;DHT22;1249;51.270;6.756;2022-08-01T16:40:48;31.50;59.80
2477;DHT22;1249;51.270;6.756;2022-08-01T16:43:16;31.50;59.70
2477;DHT22;1249;51.270;6.756;2022-08-01T16:45:44;31.50;59.90
2477;DHT22;1249;51.270;6.756;2022-08-01T16:48:13;31.50;59.50
2477;DHT22;1249;51.270;6.756;2022-08-01T16:50:43;31.50;59.10
2477;DHT22;1249;51.270;6.756;2022-08-01T16:53:14;31.50;59.10
2477;DHT22;1249;51.270;6.756;2022-08-01T16:55:43;31.50;58.90
2477;DHT22;1249;51.270;6.756;2022-08-01T16:58:11;31.50;59.10
2477;DHT22;1249;51.270;6.756;2022-08-01T17:00:38;31.40;58.70
2477;DHT22;1249;51.270;6.756;2022-08-01T17:03:07;31.30;59.10
2477;DHT22;1249;51.270;6.756;2022-08-01T17:05:34;31.30;58.60
2477;DHT22;1249;51.270;6.756;2022-08-01T17:08:01;31.10;58.30
2477;DHT22;1249;51.270;6.756;2022-08-01T17:10:28;31.10;58.40
2477;DHT22;1249;51.270;6.756;2022-08-01T17:12:57;30.90;58.20
2477;DHT22;1249;51.270;6.756;2022-08-01T17:15:23;30.80;58.30
2477;DHT22;1249;51.270;6.756;2022-08-01T17:17:51;30.80;58.30
2477;DHT22;1249;51.270;6.756;2022-08-01T17:20:18;30.60;58.50
2477;DHT22;1249;51.270;6.756;2022-08-01T17:22:45;30.50;57.20
2477;DHT22;1249;51.270;6.756;2022-08-01T17:25:13;30.30;57.40
2477;DHT22;1249;51.270;6.756;2022-08-01T17:27:39;30.20;58.40
2477;DHT22;1249;51.270;6.756;2022-08-01T17:30:08;30.10;58.90
2477;DHT22;1249;51.270;6.756;2022-08-01T17:32:36;29.90;58.90
2477;DHT22;1249;51.270;6.756;2022-08-01T17:35:04;29.80;59.10
2477;DHT22;1249;51.270;6.756;2022-08-01T17:37:31;29.80;59.50
2477;DHT22;1249;51.270;6.756;2022-08-01T17:39:58;29.80;60.00
2477;DHT22;1249;51.270;6.756;2022-08-01T17:42:28;29.70;60.80
2477;DHT22;1249;51.270;6.756;2022-08-01T17:44:55;29.60;60.90
2477;DHT22;1249;51.270;6.756;2022-08-01T17:47:24;29.60;61.30
2477;DHT22;1249;51.270;6.756;2022-08-01T17:49:51;29.50;61.60
2477;DHT22;1249;51.270;6.756;2022-08-01T17:52:18;29.50;61.90
2477;DHT22;1249;51.270;6.756;2022-08-01T17:54:46;29.40;62.00
2477;DHT22;1249;51.270;6.756;2022-08-01T17:57:13;29.40;61.90
2477;DHT22;1249;51.270;6.756;2022-08-01T17:59:39;29.40;62.00
2477;DHT22;1249;51.270;6.756;2022-08-01T18:02:08;29.30;61.60
2477;DHT22;1249;51.270;6.756;2022-08-01T18:04:36;29.30;61.20
2477;DHT22;1249;51.270;6.756;2022-08-01T18:07:03;29.20;61.10
2477;DHT22;1249;51.270;6.756;2022-08-01T18:09:30;29.10;60.50
2477;DHT22;1249;51.270;6.756;2022-08-01T18:11:58;29.00;60.80
2477;DHT22;1249;51.270;6.756;2022-08-01T18:14:28;28.90;60.90
2477;DHT22;1249;51.270;6.756;2022-08-01T18:16:54;28.80;61.40
2477;DHT22;1249;51.270;6.756;2022-08-01T18:19:24;28.80;62.60
2477;DHT22;1249;51.270;6.756;2022-08-01T18:21:54;28.60;61.60
2477;DHT22;1249;51.270;6.756;2022-08-01T18:24:21;28.60;62.20
2477;DHT22;1249;51.270;6.756;2022-08-01T18:26:49;28.50;62.70
2477;DHT22;1249;51.270;6.756;2022-08-01T18:29:18;28.40;63.20
2477;DHT22;1249;51.270;6.756;2022-08-01T18:31:45;28.40;63.70
2477;DHT22;1249;51.270;6.756;2022-08-01T18:34:12;28.30;64.10
2477;DHT22;1249;51.270;6.756;2022-08-01T18:36:39;28.20;64.60
2477;DHT22;1249;51.270;6.756;2022-08-01T18:39:08;28.20;64.70
2477;DHT22;1249;51.270;6.756;2022-08-01T18:41:39;28.10;64.80
2477;DHT22;1249;51.270;6.756;2022-08-01T18:44:09;28.10;65.70
2477;DHT22;1249;51.270;6.756;2022-08-01T18:46:38;28.00;65.10
2477;DHT22;1249;51.270;6.756;2022-08-01T18:49:06;28.00;65.40
2477;DHT22;1249;51.270;6.756;2022-08-01T18:51:39;27.90;65.60
2477;DHT22;1249;51.270;6.756;2022-08-01T18:54:07;27.90;65.80
2477;DHT22;1249;51.270;6.756;2022-08-01T18:56:34;27.80;66.00
2477;DHT22;1249;51.270;6.756;2022-08-01T18:59:01;27.80;66.20
2477;DHT22;1249;51.270;6.756;2022-08-01T19:01:28;27.70;66.40
2477;DHT22;1249;51.270;6.756;2022-08-01T19:03:55;27.70;66.70
2477;DHT22;1249;51.270;6.756;2022-08-01T19:06:22;27.60;66.90
2477;DHT22;1249;51.270;6.756;2022-08-01T19:08:52;27.50;67.20
2477;DHT22;1249;51.270;6.756;2022-08-01T19:11:20;27.50;67.50
2477;DHT22;1249;51.270;6.756;2022-08-01T19:13:47;27.40;67.70
2477;DHT22;1249;51.270;6.756;2022-08-01T19:16:14;27.40;67.90
2477;DHT22;1249;51.270;6.756;2022-08-01T19:18:42;27.30;68.10
2477;DHT22;1249;51.270;6.756;2022-08-01T19:21:09;27.30;68.40
2477;DHT22;1249;51.270;6.756;2022-08-01T19:23:36;27.20;68.60
2477;DHT22;1249;51.270;6.756;2022-08-01T19:26:24;27.20;68.70
2477;DHT22;1249;51.270;6.756;2022-08-01T19:28:55;27.10;68.90
2477;DHT22;1249;51.270;6.756;2022-08-01T19:31:24;27.10;69.20
2477;DHT22;1249;51.270;6.756;2022-08-01T19:33:53;27.00;69.50
2477;DHT22;1249;51.270;6.756;2022-08-01T19:36:21;27.00;69.70
2477;DHT22;1249;51.270;6.756;2022-08-01T19:38:48;26.90;69.90
2477;DHT22;1249;51.270;6.756;2022-08-01T19:41:16;26.90;70.00
2477;DHT22;1249;51.270;6.756;2022-08-01T19:43:45;26.80;70.10
2477;DHT22;1249;51.270;6.756;2022-08-01T19:46:12;26.80;70.20
2477;DHT22;1249;51.270;6.756;2022-08-01T19:48:41;26.70;70.30
2477;DHT22;1249;51.270;6.756;2022-08-01T19:51:13;26.70;70.50
2477;DHT22;1249;51.270;6.756;2022-08-01T19:53:48;26.70;70.70
2477;DHT22;1249;51.270;6.756;2022-08-01T19:56:16;26.60;70.90
2477;DHT22;1249;51.270;6.756;2022-08-01T19:58:50;26.60;71.10
2477;DHT22;1249;51.270;6.756;2022-08-01T20:01:19;26.60;71.20
2477;DHT22;1249;51.270;6.756;2022-08-01T20:03:48;26.50;71.40
2477;DHT22;1249;51.270;6.756;2022-08-01T20:06:15;26.50;71.70
2477;DHT22;1249;51.270;6.756;2022-08-01T20:08:42;26.50;71.90
2477;DHT22;1249;51.270;6.756;2022-08-01T20:11:09;26.50;72.20
2477;DHT22;1249;51.270;6.756;2022-08-01T20:13:38;26.40;72.20
2477;DHT22;1249;51.270;6.756;2022-08-01T20:16:07;26.40;72.40
2477;DHT22;1249;51.270;6.756;2022-08-01T20:18:34;26.30;72.50
2477;DHT22;1249;51.270;6.756;2022-08-01T20:21:01;26.30;72.80
2477;DHT22;1249;51.270;6.756;2022-08-01T20:23:31;26.30;72.80
2477;DHT22;1249;51.270;6.756;2022-08-01T20:26:06;26.30;73.00
2477;DHT22;1249;51.270;6.756;2022-08-01T20:28:37;26.30;73.70
2477;DHT22;1249;51.270;6.756;2022-08-01T20:31:08;26.20;73.60
2477;DHT22;1249;51.270;6.756;2022-08-01T20:33:40;26.10;73.60
2477;DHT22;1249;51.270;6.756;2022-08-01T20:36:07;26.10;73.80
2477;DHT22;1249;51.270;6.756;2022-08-01T20:38:35;26.10;73.90
2477;DHT22;1249;51.270;6.756;2022-08-01T20:41:04;26.10;74.00
2477;DHT22;1249;51.270;6.756;2022-08-01T20:43:32;26.00;74.20
2477;DHT22;1249;51.270;6.756;2022-08-01T20:45:59;26.00;74.40
2477;DHT22;1249;51.270;6.756;2022-08-01T20:48:28;25.90;74.60
2477;DHT22;1249;51.270;6.756;2022-08-01T20:50:57;25.90;74.80
2477;DHT22;1249;51.270;6.756;2022-08-01T20:53:41;25.90;75.70
2477;DHT22;1249;51.270;6.756;2022-08-01T20:56:13;25.80;75.00
2477;DHT22;1249;51.270;6.756;2022-08-01T20:58:48;25.80;75.20
2477;DHT22;1249;51.270;6.756;2022-08-01T21:01:25;25.80;75.40
2477;DHT22;1249;51.270;6.756;2022-08-01T21:04:05;25.80;75.60
2477;DHT22;1249;51.270;6.756;2022-08-01T21:06:36;25.70;75.60
2477;DHT22;1249;51.270;6.756;2022-08-01T21:09:04;25.70;75.80
2477;DHT22;1249;51.270;6.756;2022-08-01T21:11:38;25.60;75.80
2477;DHT22;1249;51.270;6.756;2022-08-01T21:14:10;25.60;76.00
2477;DHT22;1249;51.270;6.756;2022-08-01T21:16:44;25.50;76.10
2477;DHT22;1249;51.270;6.756;2022-08-01T21:19:17;25.50;76.20
2477;DHT22;1249;51.270;6.756;2022-08-01T21:21:50;25.50;76.40
2477;DHT22;1249;51.270;6.756;2022-08-01T21:24:25;25.40;76.40
2477;DHT22;1249;51.270;6.756;2022-08-01T21:26:55;25.40;76.70
2477;DHT22;1249;51.270;6.756;2022-08-01T21:29:23;25.40;76.80
2477;DHT22;1249;51.270;6.756;2022-08-01T21:31:51;25.40;77.00
2477;DHT22;1249;51.270;6.756;2022-08-01T21:34:34;25.30;77.00
2477;DHT22;1249;51.270;6.756;2022-08-01T21:37:04;25.40;77.20
2477;DHT22;1249;51.270;6.756;2022-08-01T21:39:33;25.30;77.40
2477;DHT22;1249;51.270;6.756;2022-08-01T21:42:00;25.20;77.40
2477;DHT22;1249;51.270;6.756;2022-08-01T21:44:27;25.20;77.70
2477;DHT22;1249;51.270;6.756;2022-08-01T21:46:59;25.20;78.00
2477;DHT22;1249;51.270;6.756;2022-08-01T21:49:26;25.20;78.30
2477;DHT22;1249;51.270;6.756;2022-08-01T21:51:59;25.10;78.90
2477;DHT22;1249;51.270;6.756;2022-08-01T21:54:28;25.10;79.10
2477;DHT22;1249;51.270;6.756;2022-08-01T21:57:13;25.10;78.90
2477;DHT22;1249;51.270;6.756;2022-08-01T21:59:46;25.00;79.00
2477;DHT22;1249;51.270;6.756;2022-08-01T22:02:18;25.00;79.10
2477;DHT22;1249;51.270;6.756;2022-08-01T22:04:52;25.00;79.20
2477;DHT22;1249;51.270;6.756;2022-08-01T22:07:21;25.00;79.40
2477;DHT22;1249;51.270;6.756;2022-08-01T22:09:52;24.90;79.40
2477;DHT22;1249;51.270;6.756;2022-08-01T22:12:20;24.90;79.40
2477;DHT22;1249;51.270;6.756;2022-08-01T22:14:48;24.80;79.40
2477;DHT22;1249;51.270;6.756;2022-08-01T22:17:19;24.80;79.60
2477;DHT22;1249;51.270;6.756;2022-08-01T22:19:48;24.80;79.70
2477;DHT22;1249;51.270;6.756;2022-08-01T22:22:16;24.80;79.80
2477;DHT22;1249;51.270;6.756;2022-08-01T22:24:47;24.70;80.00
2477;DHT22;1249;51.270;6.756;2022-08-01T22:27:15;24.70;80.10
2477;DHT22;1249;51.270;6.756;2022-08-01T22:29:52;24.70;80.10
2477;DHT22;1249;51.270;6.756;2022-08-01T22:32:21;24.70;80.40
2477;DHT22;1249;51.270;6.756;2022-08-01T22:34:50;24.60;80.20